Time;durP1;ratioP1;P1;durP2;ratioP2;P2;SDS_P1;SDS_P2;PMS_P1;PMS_P2;Temp;Humidity;BMP_temperature;BMP_pressure;BME280_temperature;BME280_humidity;BME280_pressure;Samples;Min_cycle;Max_cycle;Signal;HPM_P1;HPM_P2
2022/11/25 00:01:33;;;;;;;7.07;3.92;;;;;;;8.29;77.86;96432.91;4975351;28;20141;-61
2022/11/25 00:04:00;;;;;;;10.30;4.35;;;;;;;7.98;78.35;96355.94;4983193;28;20109;-61
2022/11/25 00:06:32;;;;;;;8.45;4.05;;;;;;;8.50;77.83;96425.75;4976404;28;20518;-61
2022/11/25 00:09:05;;;;;;;13.45;6.75;;;;;;;8.45;78.24;96419.75;4965356;28;20109;-61
2022/11/25 00:11:39;;;;;;;8.05;4.78;;;;;;;8.36;76.93;96433.03;4984866;28;20173;-60
2022/11/25 00:14:10;;;;;;;15.68;5.60;;;;;;;8.09;76.86;96378.97;4983477;28;20050;-60
2022/11/25 00:16:37;;;;;;;7.38;4.28;;;;;;;8.47;75.14;96428.47;4970376;28;20134;-60
2022/11/25 00:19:10;;;;;;;7.38;5.50;;;;;;;8.16;78.29;96373.53;4965739;28;20553;-60
2022/11/25 00:21:36;;;;;;;12.23;5.90;;;;;;;7.95;81.35;96351.16;4965650;28;20054;-60
2022/11/25 00:24:05;;;;;;;9.30;6.10;;;;;;;8.34;81.98;96432.59;4960367;28;20055;-61
2022/11/25 00:26:34;;;;;;;10.70;6.05;;;;;;;8.25;82.04;96432.84;4945454;28;20055;-61
2022/11/25 00:29:03;;;;;;;8.82;5.78;;;;;;;8.21;81.92;96436.69;4944776;29;20470;-60
2022/11/25 00:31:32;;;;;;;9.60;5.10;;;;;;;8.13;79.27;96424.75;4945998;28;20110;-61
2022/11/25 00:33:59;;;;;;;5.85;4.45;;;;;;;8.22;79.14;96411.47;4946021;28;20419;-60
2022/11/25 00:36:36;;;;;;;9.68;5.28;;;;;;;8.17;79.84;96419.28;4949090;28;20506;-60
2022/11/25 00:39:06;;;;;;;8.23;5.55;;;;;;;8.12;81.17;96406.59;4965603;28;20153;-60
2022/11/25 00:44:34;;;;;;;6.47;4.22;;;;;;;8.11;82.27;96426.28;4965640;28;20055;-59
2022/11/25 00:47:12;;;;;;;9.45;5.90;;;;;;;8.14;80.94;96422.78;4983263;28;20050;-60
2022/11/25 00:49:41;;;;;;;11.05;7.05;;;;;;;8.19;79.96;96433.50;4983084;28;20489;-60
2022/11/25 00:52:09;;;;;;;9.27;5.35;;;;;;;8.23;78.89;96417.84;4983446;28;20050;-59
2022/11/25 00:54:35;;;;;;;8.82;5.47;;;;;;;8.23;80.29;96421.41;4984162;28;20054;-59
2022/11/25 00:57:03;;;;;;;8.05;5.20;;;;;;;7.94;82.00;96432.28;4983322;28;20054;-59
2022/11/25 00:59:30;;;;;;;10.40;5.65;;;;;;;8.04;82.02;96420.63;4984519;28;20050;-60
2022/11/25 01:01:56;;;;;;;13.88;6.53;;;;;;;8.13;82.10;96421.19;4984653;28;20093;-60
2022/11/25 01:04:23;;;;;;;9.80;5.13;;;;;;;7.59;81.71;96349.78;4984932;28;20054;-61
2022/11/25 01:06:50;;;;;;;10.55;5.75;;;;;;;7.84;82.75;96416.38;4984563;28;20054;-62
2022/11/25 01:09:17;;;;;;;9.40;6.22;;;;;;;7.31;83.17;96325.31;4983575;28;20089;-60
2022/11/25 01:11:43;;;;;;;13.07;5.20;;;;;;;7.40;82.15;96328.59;4984108;28;20129;-61
2022/11/25 01:14:10;;;;;;;11.43;5.22;;;;;;;8.03;82.23;96432.84;4984446;28;20505;-60
2022/11/25 01:16:37;;;;;;;13.02;6.03;;;;;;;7.85;83.11;96440.00;4982566;28;20137;-61
2022/11/25 01:19:04;;;;;;;18.00;6.20;;;;;;;7.36;82.88;96362.75;4984640;28;20153;-60
2022/11/25 01:21:32;;;;;;;16.65;6.43;;;;;;;7.92;82.41;96445.66;4984379;28;20093;-60
2022/11/25 01:24:00;;;;;;;13.73;6.00;;;;;;;7.93;81.89;96448.03;4987257;28;20058;-60
2022/11/25 01:26:28;;;;;;;17.45;7.07;;;;;;;7.14;83.00;96342.31;4987800;28;20050;-61
2022/11/25 01:28:58;;;;;;;14.10;6.30;;;;;;;7.49;85.43;96450.38;4987743;28;20178;-59
2022/11/25 01:31:27;;;;;;;13.25;5.95;;;;;;;7.66;84.53;96452.69;4984953;28;20058;-60
2022/11/25 01:34:04;;;;;;;10.23;5.18;;;;;;;7.68;83.04;96447.59;4968231;28;20159;-60
2022/11/25 01:36:31;;;;;;;7.40;4.22;;;;;;;7.31;83.23;96396.09;4966569;28;20500;-60
2022/11/25 01:38:59;;;;;;;7.57;4.68;;;;;;;7.89;83.72;96452.69;4968138;28;20085;-60
2022/11/25 01:41:28;;;;;;;11.68;6.57;;;;;;;7.89;84.25;96457.44;4969332;28;20098;-60
2022/11/25 01:44:24;;;;;;;8.85;5.60;;;;;;;7.69;84.77;96454.72;4968433;28;20416;-60
2022/11/25 01:47:14;;;;;;;9.52;5.35;;;;;;;7.76;84.49;96448.53;4967429;28;20061;-61
2022/11/25 01:49:50;;;;;;;7.97;5.15;;;;;;;7.84;82.78;96454.97;4968121;28;20055;-59
2022/11/25 01:52:27;;;;;;;8.38;4.65;;;;;;;7.82;82.44;96471.06;4967580;28;20141;-61
2022/11/25 01:55:01;;;;;;;8.15;4.80;;;;;;;7.72;82.78;96467.75;4967781;28;20087;-60
2022/11/25 01:57:56;;;;;;;7.28;5.28;;;;;;;7.77;81.27;96476.88;4947227;29;20094;-59
2022/11/25 02:00:22;;;;;;;7.05;4.55;;;;;;;7.66;82.05;96447.19;4948469;28;20161;-61
2022/11/25 02:02:52;;;;;;;9.35;5.40;;;;;;;7.77;81.82;96465.84;4954720;28;20126;-60
2022/11/25 02:05:23;;;;;;;8.20;5.07;;;;;;;7.81;82.81;96461.22;4967725;28;20054;-61
2022/11/25 02:07:57;;;;;;;7.00;5.15;;;;;;;7.83;82.32;96458.88;4974463;28;20090;-60
2022/11/25 02:10:29;;;;;;;12.88;5.18;;;;;;;4.60;82.29;95960.94;4982341;28;20061;-60
2022/11/25 02:12:56;;;;;;;8.25;5.15;;;;;;;7.34;80.88;96393.44;4965746;28;20141;-59
2022/11/25 02:15:23;;;;;;;8.00;4.65;;;;;;;7.89;80.05;96462.94;4967184;28;20544;-61
2022/11/25 02:17:50;;;;;;;8.00;4.78;;;;;;;7.59;79.92;96413.97;4967941;28;20134;-59
2022/11/25 02:20:19;;;;;;;7.47;4.50;;;;;;;8.07;79.65;96467.59;4967673;28;20055;-60
2022/11/25 02:23:03;;;;;;;6.78;4.22;;;;;;;8.10;78.98;96460.53;4967641;28;20156;-60
2022/11/25 02:25:33;;;;;;;3.50;2.70;;;;;;;8.20;74.09;96459.91;4967720;28;20137;-59
2022/11/25 02:28:05;;;;;;;5.75;3.85;;;;;;;8.17;76.32;96471.69;4979188;28;20050;-59
2022/11/25 02:30:33;;;;;;;14.48;7.35;;;;;;;8.11;76.33;96471.19;4986791;28;20054;-59
2022/11/25 02:33:00;;;;;;;4.78;3.50;;;;;;;8.01;74.92;96466.31;4986235;28;20136;-60
2022/11/25 02:35:31;;;;;;;4.57;2.47;;;;;;;8.08;72.92;96465.63;4986561;28;20472;-59
2022/11/25 02:38:27;;;;;;;5.65;3.13;;;;;;;7.69;73.79;96435.41;4974477;28;20051;-59
2022/11/25 02:41:06;;;;;;;5.45;3.55;;;;;;;8.12;74.29;96460.97;4969040;28;20062;-62
2022/11/25 02:43:33;;;;;;;6.75;3.10;;;;;;;8.11;73.86;96464.91;4965791;28;20485;-60
2022/11/25 02:46:05;;;;;;;3.42;2.40;;;;;;;8.11;73.67;96464.91;4967038;28;20050;-60
2022/11/25 02:48:34;;;;;;;6.78;2.63;;;;;;;8.06;73.61;96452.19;4965593;28;20109;-59
2022/11/25 02:51:23;;;;;;;3.63;2.28;;;;;;;8.14;72.77;96469.69;4966449;28;20528;-60
2022/11/25 02:53:50;;;;;;;4.88;3.35;;;;;;;8.16;72.11;96470.88;4966876;28;20162;-60
2022/11/25 02:56:18;;;;;;;4.25;2.55;;;;;;;8.06;72.64;96473.47;4965351;28;20107;-59
2022/11/25 02:58:45;;;;;;;4.07;2.60;;;;;;;8.20;72.02;96463.50;4966997;28;20129;-62
2022/11/25 03:01:11;;;;;;;3.58;2.28;;;;;;;8.11;71.89;96470.41;4965232;28;20597;-60
2022/11/25 03:03:38;;;;;;;4.82;2.50;;;;;;;7.91;71.24;96449.56;4966528;28;20166;-60
2022/11/25 03:06:05;;;;;;;5.68;2.15;;;;;;;8.13;70.85;96451.50;4966258;28;20137;-60
2022/11/25 03:08:32;;;;;;;4.32;2.83;;;;;;;7.61;70.51;96381.34;4967219;28;20138;-59
2022/11/25 03:10:58;;;;;;;6.00;3.03;;;;;;;8.18;69.62;96457.53;4966737;28;20321;-60
2022/11/25 03:13:25;;;;;;;5.00;2.90;;;;;;;8.25;67.30;96462.41;4965899;28;20141;-59
2022/11/25 03:15:51;;;;;;;3.30;2.15;;;;;;;8.35;66.66;96467.28;4966005;28;20053;-60
2022/11/25 03:18:18;;;;;;;3.05;2.30;;;;;;;8.47;66.77;96464.34;4965636;28;20130;-60
2022/11/25 03:20:45;;;;;;;6.07;3.10;;;;;;;8.55;65.59;96468.81;4966158;28;20089;-59
2022/11/25 03:23:11;;;;;;;3.72;2.35;;;;;;;8.47;63.08;96467.09;4966113;28;20101;-60
2022/11/25 03:25:38;;;;;;;1.90;1.60;;;;;;;8.50;62.60;96480.16;4965805;28;20600;-59
2022/11/25 03:28:05;;;;;;;3.00;1.98;;;;;;;8.58;62.20;96473.56;4983477;28;20050;-58
2022/11/25 03:30:31;;;;;;;3.33;2.00;;;;;;;8.66;62.53;96480.81;4984127;28;20132;-60
2022/11/25 03:32:58;;;;;;;31.27;15.40;;;;;;;8.27;64.31;96451.78;4985573;28;20120;-59
2022/11/25 03:35:24;;;;;;;4.15;2.90;;;;;;;8.38;64.33;96464.59;4985418;28;20197;-60
2022/11/25 03:37:51;;;;;;;72.13;26.08;;;;;;;8.54;64.32;96461.66;4967521;28;20055;-59
2022/11/25 03:40:18;;;;;;;25.38;9.63;;;;;;;8.53;64.36;96451.81;4966025;28;20397;-60
2022/11/25 03:42:45;;;;;;;18.45;7.60;;;;;;;8.44;64.09;96429.19;4966842;28;20194;-58
2022/11/25 03:45:13;;;;;;;23.73;10.30;;;;;;;8.55;66.68;96477.84;4965465;28;20502;-58
2022/11/25 03:47:42;;;;;;;35.13;13.88;;;;;;;8.72;66.94;96495.88;4964722;28;20109;-59
2022/11/25 03:50:10;;;;;;;14.65;6.22;;;;;;;6.16;66.10;96098.31;4966161;28;20065;-60
2022/11/25 03:52:37;;;;;;;7.60;3.28;;;;;;;8.69;64.90;96515.94;4965568;28;20130;-59
2022/11/25 03:55:05;;;;;;;3.17;1.90;;;;;;;8.64;63.44;96499.69;4965748;28;20058;-60
2022/11/25 03:57:33;;;;;;;3.85;1.55;;;;;;;8.63;62.87;96498.88;4965575;28;20085;-59
2022/11/25 04:00:00;;;;;;;1.77;1.50;;;;;;;8.68;63.06;96500.53;4966210;28;20090;-60
2022/11/25 04:02:27;;;;;;;2.97;1.70;;;;;;;8.68;62.98;96506.06;4965934;28;20481;-60
2022/11/25 04:04:54;;;;;;;2.50;1.63;;;;;;;8.65;61.82;96501.28;4964230;28;20611;-61
2022/11/25 04:07:20;;;;;;;3.22;2.50;;;;;;;8.69;61.31;96502.16;4965909;28;20082;-59
2022/11/25 04:09:47;;;;;;;6.00;2.95;;;;;;;8.13;62.46;96401.88;4964173;28;20623;-60
2022/11/25 04:14:58;;;;;;;3.15;2.35;;;;;;;8.75;61.88;96497.88;4965411;28;20051;-59
2022/11/25 04:17:25;;;;;;;4.30;3.08;;;;;;;8.26;62.13;96447.44;4965369;28;20143;-60
2022/11/25 04:19:51;;;;;;;3.13;1.98;;;;;;;8.59;62.62;96508.28;4964214;28;20070;-61
2022/11/25 04:22:18;;;;;;;2.25;1.60;;;;;;;8.60;62.09;96510.66;4965394;28;20117;-60
2022/11/25 04:24:44;;;;;;;1.73;1.60;;;;;;;8.57;63.00;96508.66;4965500;28;20046;-59
2022/11/25 04:27:11;;;;;;;3.50;2.08;;;;;;;8.59;62.53;96513.81;4965178;28;20594;-60
2022/11/25 04:29:38;;;;;;;1.90;1.70;;;;;;;8.51;62.88;96496.34;4964259;28;20146;-59
2022/11/25 04:32:04;;;;;;;2.00;1.58;;;;;;;8.48;63.09;96515.59;4966727;28;20082;-60
2022/11/25 04:34:31;;;;;;;1.90;1.50;;;;;;;8.47;62.79;96516.78;4983831;28;20496;-59
2022/11/25 04:36:57;;;;;;;2.00;1.80;;;;;;;8.47;63.86;96522.28;4984328;28;20518;-59
2022/11/25 04:39:24;;;;;;;3.83;2.10;;;;;;;8.44;63.63;96517.50;4953068;28;20648;-58
2022/11/25 04:42:30;;;;;;;2.42;1.92;;;;;;;8.41;64.01;96512.75;4965156;28;20054;-60
2022/11/25 04:44:37;;;;;;;1.88;1.77;;;;;;;8.39;63.99;96523.34;4965566;28;20556;-60
2022/11/25 04:47:04;;;;;;;3.88;1.92;;;;;;;8.33;63.80;96516.53;4964873;28;20138;-61
2022/11/25 04:49:31;;;;;;;4.20;2.53;;;;;;;8.35;64.15;96514.19;4965331;28;20070;-59
2022/11/25 04:51:57;;;;;;;3.13;1.90;;;;;;;8.33;64.41;96527.56;4964500;28;20142;-59
2022/11/25 04:54:24;;;;;;;4.43;1.95;;;;;;;8.08;63.81;96487.72;4965358;28;20644;-60
2022/11/25 04:56:50;;;;;;;2.40;1.80;;;;;;;8.22;63.44;96529.31;4965038;28;20504;-60
2022/11/25 05:02:02;;;;;;;4.15;3.40;;;;;;;8.16;62.92;96555.59;4968923;28;21020;-59
2022/11/25 05:04:29;;;;;;;4.88;3.72;;;;;;;8.00;62.92;96533.66;4967317;28;20059;-59
2022/11/25 05:06:56;;;;;;;21.30;12.13;;;;;;;8.22;62.86;96581.75;4968428;28;20129;-60
2022/11/25 05:09:22;;;;;;;19.58;12.80;;;;;;;7.90;62.44;96514.16;4968845;28;20137;-59
2022/11/25 05:11:49;;;;;;;10.82;5.20;;;;;;;8.37;61.70;96572.56;4968416;28;20514;-60
2022/11/25 05:14:16;;;;;;;13.48;6.22;;;;;;;7.88;62.26;96499.94;4969238;28;20226;-60
2022/11/25 05:16:42;;;;;;;12.07;7.22;;;;;;;8.16;62.99;96544.56;4968734;28;20209;-61
2022/11/25 05:19:09;;;;;;;9.77;5.13;;;;;;;8.32;63.67;96597.69;4968834;28;20067;-61
2022/11/25 05:21:35;;;;;;;8.77;4.45;;;;;;;8.41;63.46;96585.25;4968948;28;20046;-60
2022/11/25 05:24:02;;;;;;;5.95;4.22;;;;;;;8.53;63.75;96584.28;4968958;28;20548;-60
2022/11/25 05:26:29;;;;;;;11.73;6.38;;;;;;;8.41;64.10;96585.25;4968580;28;20486;-60
2022/11/25 05:28:55;;;;;;;10.60;6.45;;;;;;;8.52;63.39;96579.94;4967896;28;20423;-61
2022/11/25 05:31:22;;;;;;;10.05;6.35;;;;;;;8.53;63.69;96592.56;4982488;28;20065;-60
2022/11/25 05:33:49;;;;;;;7.78;4.18;;;;;;;8.01;62.96;96526.19;4967997;28;20142;-60
2022/11/25 05:36:16;;;;;;;5.78;3.00;;;;;;;8.52;62.66;96602.03;4968263;28;20072;-61
2022/11/25 05:38:43;;;;;;;4.90;2.97;;;;;;;8.60;61.43;96609.28;4967926;28;20133;-61
2022/11/25 05:41:10;;;;;;;6.35;3.13;;;;;;;7.63;61.37;96482.94;4968421;28;20046;-60
2022/11/25 05:43:37;;;;;;;5.53;2.58;;;;;;;8.62;61.51;96618.78;4968160;28;20082;-60
2022/11/25 05:46:05;;;;;;;3.50;1.92;;;;;;;8.67;61.76;96620.41;4968348;28;20425;-60
2022/11/25 05:48:32;;;;;;;5.32;1.88;;;;;;;8.61;61.07;96627.41;4966444;28;20054;-58
2022/11/25 05:51:00;;;;;;;3.85;3.28;;;;;;;8.52;61.56;96629.63;4968121;28;20165;-60
2022/11/25 05:53:27;;;;;;;4.25;2.35;;;;;;;8.47;62.13;96632.69;4967790;28;20568;-60
2022/11/25 05:55:59;;;;;;;3.33;2.00;;;;;;;8.57;62.25;96632.06;4968064;28;20085;-59
2022/11/25 05:58:28;;;;;;;4.53;2.38;;;;;;;8.64;62.68;96637.72;4971700;28;20664;-59
2022/11/25 06:00:56;;;;;;;10.35;4.60;;;;;;;8.57;62.89;96649.44;4968112;28;20059;-58
2022/11/25 06:03:31;;;;;;;14.05;6.60;;;;;;;8.63;61.86;96641.66;4967724;28;20142;-59
2022/11/25 06:05:59;;;;;;;12.40;7.47;;;;;;;8.44;62.18;96638.94;4967734;28;20058;-60
2022/11/25 06:08:26;;;;;;;5.75;4.40;;;;;;;8.68;61.65;96641.34;4966986;28;20055;-60
2022/11/25 06:10:53;;;;;;;12.60;7.07;;;;;;;8.58;62.45;96644.72;4966253;28;20091;-59
2022/11/25 06:13:20;;;;;;;4.88;3.00;;;;;;;7.49;61.46;96469.66;4982021;28;20058;-60
2022/11/25 06:15:47;;;;;;;4.95;3.38;;;;;;;8.72;62.02;96678.09;4968354;28;20121;-58
2022/11/25 06:18:16;;;;;;;3.97;2.35;;;;;;;8.83;61.90;96657.00;4967515;28;20070;-60
2022/11/25 06:20:43;;;;;;;8.27;4.88;;;;;;;8.65;61.56;96653.91;4967229;28;20102;-59
2022/11/25 06:23:10;;;;;;;6.63;3.10;;;;;;;8.75;59.66;96666.31;4967442;28;20517;-60
2022/11/25 06:25:37;;;;;;;5.63;3.72;;;;;;;8.80;59.53;96679.81;4967665;28;20133;-59
2022/11/25 06:28:03;;;;;;;6.93;2.97;;;;;;;8.66;59.86;96680.34;4967360;28;20430;-59
2022/11/25 06:30:38;;;;;;;37.08;21.20;;;;;;;8.55;59.09;96662.03;4967403;28;20058;-59
2022/11/25 06:33:05;;;;;;;14.80;9.10;;;;;;;8.91;58.98;96684.38;4967481;28;20406;-60
2022/11/25 06:35:31;;;;;;;6.72;3.63;;;;;;;9.01;58.30;96702.28;4967371;28;20489;-59
2022/11/25 06:37:58;;;;;;;4.57;3.08;;;;;;;9.13;58.33;96713.16;4967713;28;20051;-60
2022/11/25 06:40:25;;;;;;;9.90;5.35;;;;;;;8.44;59.24;96556.16;4967866;28;20058;-59
2022/11/25 06:42:51;;;;;;;9.15;4.68;;;;;;;9.43;59.55;96697.47;4967701;28;20058;-59
2022/11/25 06:45:18;;;;;;;11.00;3.72;;;;;;;9.51;60.24;96704.72;4967324;28;20090;-58
2022/11/25 06:47:45;;;;;;;7.05;4.57;;;;;;;9.54;59.33;96703.97;4967484;28;20423;-59
2022/11/25 06:50:11;;;;;;;6.63;4.18;;;;;;;9.61;59.12;96712.34;4967391;28;20054;-59
2022/11/25 06:52:38;;;;;;;13.70;8.90;;;;;;;9.74;59.41;96716.50;4967467;28;20133;-59
2022/11/25 06:55:06;;;;;;;8.18;5.47;;;;;;;9.72;58.35;96718.84;4964189;28;20565;-61
2022/11/25 06:57:32;;;;;;;8.43;4.82;;;;;;;9.65;58.89;96710.44;4955124;28;20509;-62
2022/11/25 06:59:59;;;;;;;11.63;7.35;;;;;;;8.88;57.76;96598.69;4973020;28;20133;-64
2022/11/25 07:02:26;;;;;;;6.00;3.15;;;;;;;9.68;56.29;96731.81;4965804;28;20047;-60
2022/11/25 07:04:53;;;;;;;6.63;4.18;;;;;;;8.99;56.08;96638.34;4974569;28;20101;-62
2022/11/25 07:07:20;;;;;;;14.40;8.35;;;;;;;9.94;56.26;96734.56;4985445;28;20601;-58
2022/11/25 07:09:46;;;;;;;10.52;5.57;;;;;;;9.77;54.53;96735.13;4980912;28;20141;-59
2022/11/25 07:12:13;;;;;;;21.88;5.97;;;;;;;9.00;56.29;96645.44;4960509;28;21823;-67
2022/11/25 07:14:40;;;;;;;11.00;6.22;;;;;;;9.52;56.22;96714.59;4967867;28;20066;-66
2022/11/25 07:17:08;;;;;;;5.05;3.20;;;;;;;9.28;57.48;96683.81;4979810;28;20050;-67
2022/11/25 07:19:37;;;;;;;6.78;3.38;;;;;;;9.65;57.79;96721.50;4950079;28;20055;-63
2022/11/25 07:22:04;;;;;;;7.88;5.65;;;;;;;9.82;57.51;96704.38;4966064;28;20113;-61
2022/11/25 07:24:32;;;;;;;11.48;7.53;;;;;;;10.04;57.28;96744.19;4975399;28;20141;-63
2022/11/25 07:26:59;;;;;;;6.72;5.15;;;;;;;9.85;56.48;96703.63;4985218;28;20054;-62
2022/11/25 07:29:26;;;;;;;5.32;3.63;;;;;;;10.23;56.57;96736.59;4984512;28;20079;-61
2022/11/25 07:32:13;;;;;;;6.40;4.43;;;;;;;10.26;56.68;96752.47;4983106;28;20058;-59
2022/11/25 07:34:40;;;;;;;7.60;5.35;;;;;;;10.22;55.78;96746.09;4971840;28;20513;-60
2022/11/25 07:37:07;;;;;;;7.28;5.05;;;;;;;9.88;56.04;96688.25;4984859;28;20086;-61
2022/11/25 07:39:33;;;;;;;5.30;4.40;;;;;;;9.83;55.85;96660.94;4985679;28;20052;-63
2022/11/25 07:42:00;;;;;;;5.90;3.90;;;;;;;10.15;54.85;96667.69;4967066;28;20588;-62
2022/11/25 07:44:27;;;;;;;4.68;2.70;;;;;;;10.82;54.43;96762.63;4973349;28;20062;-59
2022/11/25 07:46:54;;;;;;;2.65;2.30;;;;;;;10.67;54.23;96712.63;4984490;28;20050;-63
2022/11/25 07:49:24;;;;;;;10.38;5.65;;;;;;;10.97;54.38;96708.97;4990905;28;20481;-63
2022/11/25 07:51:58;;;;;;;8.00;3.65;;;;;;;10.73;53.60;96672.31;4981343;28;20046;-60
2022/11/25 07:54:25;;;;;;;5.50;3.63;;;;;;;11.06;53.32;96701.16;4976707;28;20457;-58
2022/11/25 07:56:52;;;;;;;9.40;3.35;;;;;;;10.92;53.11;96725.94;4983380;28;20128;-58
2022/11/25 07:59:21;;;;;;;4.20;2.70;;;;;;;11.51;52.70;96770.06;4985301;28;20061;-60
2022/11/25 08:01:52;;;;;;;4.93;3.08;;;;;;;11.60;52.04;96778.88;4973518;28;20058;-59
2022/11/25 08:04:19;;;;;;;4.93;3.05;;;;;;;11.11;52.51;96793.03;4965497;28;20485;-61
2022/11/25 08:06:50;;;;;;;3.40;1.85;;;;;;;9.03;54.21;96556.31;4980117;28;20152;-62
2022/11/25 08:09:19;;;;;;;4.68;3.10;;;;;;;9.48;53.83;96583.81;4984988;28;20146;-62
2022/11/25 08:11:47;;;;;;;4.85;2.70;;;;;;;10.84;54.31;96776.91;4965477;28;20468;-58
2022/11/25 08:14:14;;;;;;;4.18;3.15;;;;;;;10.81;55.30;96786.00;4978094;28;20050;-64
2022/11/25 08:16:41;;;;;;;6.00;1.73;;;;;;;9.96;55.06;96798.66;4965435;28;20506;-62
2022/11/25 08:19:12;;;;;;;6.30;2.08;;;;;;;10.28;54.81;96788.88;4977148;28;20097;-60
2022/11/25 08:21:40;;;;;;;6.70;3.13;;;;;;;10.62;54.76;96786.97;4981311;28;20160;-62
2022/11/25 08:24:06;;;;;;;3.67;2.88;;;;;;;9.69;54.67;96611.72;4973812;28;20063;-63
2022/11/25 08:26:36;;;;;;;4.50;2.97;;;;;;;10.92;54.19;96790.50;4964592;28;20190;-59
2022/11/25 08:29:05;;;;;;;4.93;3.13;;;;;;;10.64;54.94;96730.00;4974120;28;20057;-62
2022/11/25 08:31:35;;;;;;;4.60;2.90;;;;;;;11.13;52.95;96795.47;4985046;28;20128;-63
2022/11/25 08:34:02;;;;;;;4.07;3.03;;;;;;;10.75;52.96;96734.88;4988682;28;20054;-61
2022/11/25 08:36:30;;;;;;;5.28;4.53;;;;;;;11.19;53.79;96799.50;4988443;28;20136;-60
2022/11/25 08:38:59;;;;;;;5.35;2.97;;;;;;;11.33;53.09;96805.19;4987902;28;20089;-62
2022/11/25 08:41:31;;;;;;;3.22;2.50;;;;;;;11.48;53.18;96809.66;4987835;28;20062;-61
2022/11/25 08:44:00;;;;;;;16.63;9.80;;;;;;;11.46;52.96;96800.97;4981536;28;20105;-60
2022/11/25 08:46:29;;;;;;;8.88;6.00;;;;;;;11.65;53.03;96800.78;4988356;28;20265;-59
2022/11/25 08:48:56;;;;;;;3.92;3.05;;;;;;;11.86;52.61;96803.69;4980676;28;20053;-57
2022/11/25 08:51:30;;;;;;;7.28;4.28;;;;;;;11.80;51.83;96802.47;4967317;28;20150;-58
2022/11/25 08:53:58;;;;;;;3.95;3.22;;;;;;;12.24;52.42;96800.41;4969498;28;20502;-58
2022/11/25 08:56:25;;;;;;;4.15;3.60;;;;;;;12.15;51.00;96720.22;4969372;28;20140;-65
2022/11/25 08:58:52;;;;;;;5.57;4.00;;;;;;;12.86;49.33;96799.19;4966952;28;20058;-58
2022/11/25 09:01:20;;;;;;;6.45;3.42;;;;;;;12.98;48.48;96793.25;4969034;28;20121;-65
2022/11/25 09:03:50;;;;;;;4.00;2.40;;;;;;;12.88;48.56;96796.00;4972048;28;20054;-59
2022/11/25 09:06:18;;;;;;;2.60;2.38;;;;;;;12.89;46.97;96801.16;4980821;28;20108;-60
2022/11/25 09:08:46;;;;;;;4.07;2.47;;;;;;;11.61;48.41;96747.19;4979644;28;20116;-58
2022/11/25 09:11:13;;;;;;;4.35;3.60;;;;;;;12.39;48.67;96796.56;4973920;28;20065;-61
2022/11/25 09:13:40;;;;;;;5.93;4.38;;;;;;;12.84;49.06;96798.75;4985879;28;20528;-60
2022/11/25 09:16:08;;;;;;;5.07;3.88;;;;;;;13.12;48.07;96793.31;4967077;28;20062;-59
2022/11/25 09:18:36;;;;;;;2.55;2.35;;;;;;;13.19;47.22;96801.69;4973035;28;20467;-62
2022/11/25 09:21:10;;;;;;;4.60;2.90;;;;;;;10.98;48.49;96439.00;4968160;28;20066;-61
2022/11/25 09:23:38;;;;;;;6.97;3.83;;;;;;;12.45;46.98;96733.88;4967687;28;20489;-62
2022/11/25 09:26:06;;;;;;;3.72;2.67;;;;;;;13.21;46.52;96793.78;4966800;28;20525;-61
2022/11/25 09:28:34;;;;;;;3.78;2.90;;;;;;;13.35;47.45;96801.34;4976868;28;20073;-58
2022/11/25 09:31:08;;;;;;;3.03;2.40;;;;;;;13.42;47.18;96793.78;4968206;28;20519;-62
2022/11/25 09:33:35;;;;;;;4.47;2.60;;;;;;;13.19;45.44;96765.53;4966718;28;20489;-60
2022/11/25 09:36:03;;;;;;;6.15;4.20;;;;;;;13.54;44.64;96790.66;4967408;28;20465;-62
2022/11/25 09:38:29;;;;;;;2.53;2.33;;;;;;;13.70;44.09;96793.81;4967314;28;20522;-60
2022/11/25 09:47:32;;;;;;;3.58;2.80;;;;;;;13.62;44.44;96786.66;4966870;28;20051;-59
2022/11/25 09:50:06;;;;;;;5.55;3.70;;;;;;;13.35;45.19;96793.00;4967983;28;20159;-61
2022/11/25 09:52:43;;;;;;;5.32;3.60;;;;;;;13.36;45.43;96794.56;4975475;28;20105;-62
2022/11/25 09:55:25;;;;;;;2.50;2.10;;;;;;;13.24;45.64;96790.19;4980817;28;20050;-60
2022/11/25 09:58:09;;;;;;;4.05;2.53;;;;;;;13.32;45.30;96783.47;4986725;28;20490;-63
2022/11/25 10:00:40;;;;;;;26.45;8.52;;;;;;;13.42;46.01;96781.91;4982622;28;20097;-57
2022/11/25 10:03:25;;;;;;;25.27;7.18;;;;;;;13.46;45.11;96789.06;4979154;28;20054;-62
2022/11/25 10:06:04;;;;;;;11.15;5.85;;;;;;;13.11;45.78;96761.16;4970787;28;20414;-64
2022/11/25 10:08:38;;;;;;;6.60;3.13;;;;;;;13.33;45.85;96796.16;4969339;28;20051;-63
2022/11/25 10:11:17;;;;;;;3.40;2.92;;;;;;;13.34;46.46;96800.53;4962042;28;20596;-60
2022/11/25 10:13:48;;;;;;;5.22;3.50;;;;;;;12.87;46.19;96750.72;4967206;28;20058;-59
2022/11/25 10:16:35;;;;;;;3.45;2.00;;;;;;;12.67;46.14;96793.94;4977620;28;20054;-58
2022/11/25 10:19:07;;;;;;;5.75;5.03;;;;;;;12.54;46.42;96798.22;4966533;28;20410;-55
2022/11/25 10:21:33;;;;;;;3.05;2.75;;;;;;;12.60;46.52;96807.00;4967128;28;20110;-55
2022/11/25 10:24:03;;;;;;;3.22;2.72;;;;;;;12.33;47.31;96800.88;4967113;28;20125;-59
2022/11/25 10:26:37;;;;;;;3.80;2.80;;;;;;;12.44;46.37;96732.28;4966153;28;20050;-59
2022/11/25 10:29:28;;;;;;;4.57;3.30;;;;;;;13.34;46.74;96796.97;4962203;28;20062;-55
2022/11/25 10:32:19;;;;;;;3.90;2.75;;;;;;;13.36;45.55;96789.81;4975064;28;20054;-59
2022/11/25 10:34:51;;;;;;;3.72;3.10;;;;;;;13.78;44.94;96789.09;4964861;28;20055;-56
2022/11/25 10:37:28;;;;;;;5.25;3.22;;;;;;;13.98;44.87;96789.47;4964363;28;20511;-59
2022/11/25 10:39:54;;;;;;;3.75;2.97;;;;;;;14.15;43.90;96780.28;4967133;28;20142;-59
2022/11/25 10:42:24;;;;;;;4.00;3.00;;;;;;;14.25;44.09;96785.09;4966586;28;20046;-57
2022/11/25 10:44:53;;;;;;;4.40;3.15;;;;;;;14.23;44.10;96798.59;4966915;28;20165;-55
2022/11/25 10:47:32;;;;;;;12.52;9.02;;;;;;;14.43;43.83;96805.38;4980698;28;20129;-58
2022/11/25 10:50:31;;;;;;;6.00;4.32;;;;;;;14.37;42.59;96748.47;4965172;28;20055;-55
2022/11/25 10:53:07;;;;;;;4.07;2.35;;;;;;;14.04;42.66;96796.22;4966568;28;20094;-55
2022/11/25 10:55:34;;;;;;;5.47;3.40;;;;;;;14.01;43.27;96777.53;4966385;28;20154;-58
2022/11/25 10:58:35;;;;;;;3.63;3.00;;;;;;;14.38;43.14;96789.06;4969637;28;20050;-55
2022/11/25 11:01:20;;;;;;;4.35;3.13;;;;;;;14.72;42.99;96793.75;4652180;28;10000963;-59
2022/11/25 11:04:04;;;;;;;5.00;3.75;;;;;;;14.73;42.15;96788.97;4986088;28;20117;-59
2022/11/25 11:06:39;;;;;;;11.30;5.90;;;;;;;14.71;42.61;96794.94;4984636;28;20093;-59
2022/11/25 11:09:33;;;;;;;3.50;3.20;;;;;;;14.78;41.72;96791.31;4986030;28;20129;-60
2022/11/25 11:12:12;;;;;;;3.92;3.05;;;;;;;14.74;41.81;96804.50;4986527;28;20116;-56
2022/11/25 11:14:39;;;;;;;3.38;2.80;;;;;;;14.82;41.35;96814.44;4986927;28;20607;-59
2022/11/25 11:17:39;;;;;;;2.72;2.53;;;;;;;14.65;41.66;96815.28;4987040;28;20608;-59
2022/11/25 11:20:06;;;;;;;2.33;2.15;;;;;;;14.60;40.58;96796.97;4984594;28;20173;-56
2022/11/25 11:22:34;;;;;;;2.97;2.00;;;;;;;14.44;41.04;96798.59;4985268;28;20061;-60
2022/11/25 11:25:08;;;;;;;3.22;2.10;;;;;;;14.47;40.84;96814.50;4983892;28;20132;-59
2022/11/25 11:27:37;;;;;;;4.85;1.95;;;;;;;14.13;39.98;96791.06;4988505;28;20081;-58
2022/11/25 11:30:09;;;;;;;2.22;1.80;;;;;;;13.94;40.55;96805.38;4986183;28;20109;-58
2022/11/25 11:32:41;;;;;;;4.88;3.40;;;;;;;13.44;40.82;96718.28;4981370;28;20070;-60
2022/11/25 11:35:22;;;;;;;4.50;3.25;;;;;;;14.01;40.43;96813.72;4982218;28;20054;-57
2022/11/25 11:37:54;;;;;;;2.60;1.98;;;;;;;13.80;39.93;96808.94;4984994;28;20135;-62
2022/11/25 11:40:24;;;;;;;1.90;1.80;;;;;;;13.46;39.50;96805.75;4997743;28;20397;-59
2022/11/25 11:43:05;;;;;;;1.80;1.70;;;;;;;13.12;40.25;96807.22;4984848;28;20839;-62
2022/11/25 11:46:06;;;;;;;1.65;1.55;;;;;;;13.00;40.17;96803.97;5014774;28;20141;-62
2022/11/25 11:48:50;;;;;;;2.22;1.90;;;;;;;12.64;40.81;96758.59;5003482;28;20317;-60
2022/11/25 11:51:45;;;;;;;2.60;2.10;;;;;;;12.84;41.50;96807.09;4990358;28;20050;-63
2022/11/25 11:54:14;;;;;;;2.08;1.80;;;;;;;12.71;41.79;96825.28;4986516;28;20116;-62
2022/11/25 11:56:45;;;;;;;2.70;2.22;;;;;;;12.70;41.68;96818.16;4998008;28;20606;-61
2022/11/25 11:59:29;;;;;;;2.42;2.10;;;;;;;12.75;42.00;96822.53;4987394;28;20053;-62
2022/11/25 12:02:04;;;;;;;2.38;2.00;;;;;;;12.65;41.30;96799.06;4994093;28;20058;-58
2022/11/25 12:04:40;;;;;;;2.58;2.28;;;;;;;12.71;41.17;96780.81;5000140;28;20149;-66
2022/11/25 12:07:31;;;;;;;5.72;3.55;;;;;;;13.03;41.34;96828.25;4971644;28;20386;-61